N712DC KBFI-KFHR
Flight info
| Callsign | N712DC |
|---|---|
| Flight time | 0h 47m |
| Altitude | 4000 |
| Route | NRVNA1NRVNA PAE V287 CVV |
| Aircraft | C172/L-VGD/C |
Departure
| Time | 2026-05-08 17:00 |
|---|---|
| Airport | King County International Airport - Boeing Field (KBFI) |
Arrival
| Time | 2026-05-08 17:47 |
|---|---|
| Airport | Friday Harbor Airport (KFHR) |
| Time | Latitude | Longitude | Altitude | Speed | Heading |
|---|---|---|---|---|---|
| 2026-05-08 16:48 | 47.53945 | -122.30713 | 19 ft | 0 kts | 150° |
| 2026-05-08 16:54 | 47.53943 | -122.30711 | 19 ft | 1 kts | 149° |
| 2026-05-08 16:54 | 47.53919 | -122.30693 | 19 ft | 5 kts | 171° |
| 2026-05-08 16:55 | 47.53917 | -122.30739 | 18 ft | 6 kts | 307° |
| 2026-05-08 16:55 | 47.53953 | -122.30783 | 19 ft | 7 kts | 331° |
| 2026-05-08 16:55 | 47.54001 | -122.30821 | 19 ft | 8 kts | 331° |
| 2026-05-08 16:55 | 47.54051 | -122.30872 | 19 ft | 8 kts | 323° |
| 2026-05-08 16:56 | 47.54086 | -122.30912 | 19 ft | 4 kts | 322° |
| 2026-05-08 16:56 | 47.54109 | -122.30949 | 18 ft | 5 kts | 280° |
| 2026-05-08 16:56 | 47.54093 | -122.30993 | 17 ft | 4 kts | 237° |
| 2026-05-08 16:56 | 47.54084 | -122.31020 | 17 ft | 0 kts | 259° |
| 2026-05-08 16:58 | 47.54079 | -122.31037 | 17 ft | 5 kts | 233° |
| 2026-05-08 16:58 | 47.54043 | -122.31103 | 16 ft | 8 kts | 216° |
| 2026-05-08 16:59 | 47.53997 | -122.31089 | 15 ft | 10 kts | 149° |
| 2026-05-08 16:59 | 47.53748 | -122.30881 | 38 ft | 62 kts | 152° |
| 2026-05-08 16:59 | 47.53365 | -122.30536 | 254 ft | 67 kts | 152° |
| 2026-05-08 16:59 | 47.52959 | -122.30219 | 496 ft | 66 kts | 156° |
| 2026-05-08 17:00 | 47.52550 | -122.29870 | 715 ft | 70 kts | 154° |
| 2026-05-08 17:00 | 47.52123 | -122.29517 | 948 ft | 71 kts | 154° |
| 2026-05-08 17:00 | 47.51687 | -122.29108 | 1151 ft | 77 kts | 152° |
| 2026-05-08 17:00 | 47.51238 | -122.28712 | 1400 ft | 76 kts | 154° |
| 2026-05-08 17:01 | 47.50778 | -122.28297 | 1604 ft | 79 kts | 156° |
| 2026-05-08 17:01 | 47.50297 | -122.27917 | 1825 ft | 79 kts | 162° |
| 2026-05-08 17:01 | 47.49807 | -122.27535 | 2067 ft | 79 kts | 155° |
| 2026-05-08 17:01 | 47.49331 | -122.27145 | 2288 ft | 79 kts | 156° |
| 2026-05-08 17:02 | 47.48860 | -122.26746 | 2518 ft | 78 kts | 154° |
| 2026-05-08 17:02 | 47.48383 | -122.26338 | 2725 ft | 79 kts | 153° |
| 2026-05-08 17:02 | 47.47918 | -122.25897 | 2929 ft | 81 kts | 144° |
| 2026-05-08 17:02 | 47.47683 | -122.25133 | 3132 ft | 88 kts | 88° |
| 2026-05-08 17:03 | 47.47937 | -122.24317 | 3313 ft | 92 kts | 45° |
| 2026-05-08 17:03 | 47.48486 | -122.23880 | 3500 ft | 90 kts | 8° |
| 2026-05-08 17:03 | 47.49105 | -122.23868 | 3699 ft | 87 kts | 348° |
| 2026-05-08 17:03 | 47.49711 | -122.23917 | 3892 ft | 89 kts | 353° |
| 2026-05-08 17:04 | 47.50327 | -122.23997 | 4046 ft | 93 kts | 350° |
| 2026-05-08 17:04 | 47.51032 | -122.24072 | 4032 ft | 107 kts | 355° |
| 2026-05-08 17:04 | 47.51773 | -122.24095 | 4087 ft | 108 kts | 352° |
| 2026-05-08 17:04 | 47.52547 | -122.24172 | 4105 ft | 112 kts | 351° |
| 2026-05-08 17:05 | 47.53322 | -122.24294 | 4128 ft | 114 kts | 350° |
| 2026-05-08 17:05 | 47.54129 | -122.24425 | 4107 ft | 118 kts | 351° |
| 2026-05-08 17:05 | 47.54950 | -122.24551 | 4072 ft | 120 kts | 350° |
| 2026-05-08 17:05 | 47.55786 | -122.24699 | 4063 ft | 119 kts | 351° |
| 2026-05-08 17:06 | 47.56615 | -122.24818 | 4019 ft | 121 kts | 351° |
| 2026-05-08 17:06 | 47.57452 | -122.24944 | 3998 ft | 121 kts | 351° |
| 2026-05-08 17:06 | 47.58302 | -122.25035 | 3974 ft | 121 kts | 355° |
| 2026-05-08 17:06 | 47.59136 | -122.24994 | 3951 ft | 121 kts | 4° |
| 2026-05-08 17:07 | 47.59973 | -122.24918 | 3942 ft | 120 kts | 356° |
| 2026-05-08 17:07 | 47.60807 | -122.24971 | 3946 ft | 118 kts | 355° |
| 2026-05-08 17:07 | 47.61623 | -122.25034 | 3952 ft | 118 kts | 353° |
| 2026-05-08 17:07 | 47.62436 | -122.25124 | 3974 ft | 116 kts | 353° |
| 2026-05-08 17:08 | 47.63247 | -122.25224 | 3993 ft | 116 kts | 352° |
| 2026-05-08 17:08 | 47.64050 | -122.25343 | 4000 ft | 117 kts | 351° |
| 2026-05-08 17:08 | 47.64856 | -122.25473 | 4032 ft | 115 kts | 351° |
| 2026-05-08 17:08 | 47.65655 | -122.25597 | 4051 ft | 115 kts | 351° |
| 2026-05-08 17:09 | 47.66448 | -122.25722 | 4073 ft | 115 kts | 350° |
| 2026-05-08 17:09 | 47.67259 | -122.25821 | 4062 ft | 117 kts | 354° |
| 2026-05-08 17:09 | 47.68065 | -122.25874 | 4084 ft | 116 kts | 355° |
| 2026-05-08 17:09 | 47.68892 | -122.25946 | 4073 ft | 118 kts | 353° |
| 2026-05-08 17:10 | 47.69706 | -122.26020 | 4079 ft | 118 kts | 355° |
| 2026-05-08 17:10 | 47.70526 | -122.26088 | 4089 ft | 118 kts | 353° |
| 2026-05-08 17:10 | 47.71349 | -122.26180 | 4083 ft | 118 kts | 355° |
| 2026-05-08 17:10 | 47.72168 | -122.26201 | 4090 ft | 118 kts | 358° |
| 2026-05-08 17:11 | 47.73004 | -122.26200 | 4064 ft | 120 kts | 359° |
| 2026-05-08 17:11 | 47.73834 | -122.26163 | 4074 ft | 119 kts | 1° |
| 2026-05-08 17:11 | 47.74674 | -122.26166 | 4056 ft | 120 kts | 355° |
| 2026-05-08 17:11 | 47.75495 | -122.26258 | 4052 ft | 120 kts | 353° |
| 2026-05-08 17:12 | 47.76336 | -122.26340 | 4053 ft | 119 kts | 356° |
| 2026-05-08 17:12 | 47.77168 | -122.26356 | 4027 ft | 122 kts | 358° |
| 2026-05-08 17:12 | 47.78020 | -122.26375 | 4036 ft | 120 kts | 356° |
| 2026-05-08 17:12 | 47.78851 | -122.26434 | 4033 ft | 120 kts | 356° |
| 2026-05-08 17:13 | 47.79684 | -122.26505 | 4024 ft | 120 kts | 354° |
| 2026-05-08 17:13 | 47.80523 | -122.26620 | 3999 ft | 122 kts | 352° |
| 2026-05-08 17:13 | 47.81370 | -122.26761 | 4011 ft | 120 kts | 352° |
| 2026-05-08 17:13 | 47.82208 | -122.26898 | 3981 ft | 122 kts | 353° |
| 2026-05-08 17:14 | 47.83044 | -122.27004 | 4003 ft | 120 kts | 355° |
| 2026-05-08 17:14 | 47.83886 | -122.27081 | 3980 ft | 121 kts | 356° |
| 2026-05-08 17:14 | 47.84723 | -122.27148 | 3975 ft | 121 kts | 358° |
| 2026-05-08 17:14 | 47.85557 | -122.27201 | 3980 ft | 120 kts | 356° |
| 2026-05-08 17:15 | 47.86405 | -122.27271 | 3946 ft | 122 kts | 356° |
| 2026-05-08 17:15 | 47.87246 | -122.27332 | 3966 ft | 119 kts | 356° |
| 2026-05-08 17:15 | 47.88082 | -122.27375 | 3953 ft | 121 kts | 357° |
| 2026-05-08 17:15 | 47.88908 | -122.27386 | 3965 ft | 119 kts | 359° |
| 2026-05-08 17:16 | 47.89744 | -122.27391 | 3961 ft | 120 kts | 358° |
| 2026-05-08 17:16 | 47.90575 | -122.27409 | 3950 ft | 121 kts | 358° |
| 2026-05-08 17:16 | 47.91414 | -122.27393 | 3959 ft | 120 kts | 1° |
| 2026-05-08 17:16 | 47.92238 | -122.27510 | 3978 ft | 118 kts | 342° |
| 2026-05-08 17:17 | 47.92924 | -122.28113 | 4005 ft | 114 kts | 311° |
| 2026-05-08 17:17 | 47.93480 | -122.28986 | 4000 ft | 116 kts | 309° |
| 2026-05-08 17:17 | 47.94036 | -122.29850 | 3998 ft | 117 kts | 313° |
| 2026-05-08 17:17 | 47.94603 | -122.30727 | 4010 ft | 116 kts | 308° |
| 2026-05-08 17:18 | 47.95137 | -122.31616 | 4032 ft | 115 kts | 310° |
| 2026-05-08 17:18 | 47.95694 | -122.32500 | 4026 ft | 117 kts | 309° |
| 2026-05-08 17:18 | 47.96244 | -122.33391 | 4039 ft | 117 kts | 310° |
| 2026-05-08 17:18 | 47.96813 | -122.34251 | 4063 ft | 115 kts | 313° |
| 2026-05-08 17:19 | 47.97419 | -122.35040 | 4051 ft | 117 kts | 316° |
| 2026-05-08 17:19 | 47.98022 | -122.35860 | 4036 ft | 117 kts | 316° |
| 2026-05-08 17:19 | 47.98653 | -122.36632 | 4056 ft | 116 kts | 318° |
| 2026-05-08 17:19 | 47.99260 | -122.37444 | 4043 ft | 118 kts | 315° |
| 2026-05-08 17:20 | 47.99871 | -122.38250 | 4040 ft | 119 kts | 317° |
| 2026-05-08 17:20 | 48.00512 | -122.39024 | 4061 ft | 117 kts | 319° |
| 2026-05-08 17:20 | 48.01143 | -122.39805 | 4061 ft | 117 kts | 318° |
| 2026-05-08 17:20 | 48.01750 | -122.40601 | 4067 ft | 117 kts | 315° |
| 2026-05-08 17:21 | 48.02338 | -122.41452 | 4051 ft | 118 kts | 313° |
| 2026-05-08 17:21 | 48.02911 | -122.42300 | 4086 ft | 114 kts | 314° |
| 2026-05-08 17:21 | 48.03490 | -122.43144 | 4043 ft | 118 kts | 314° |
| 2026-05-08 17:21 | 48.04061 | -122.43980 | 4094 ft | 113 kts | 315° |
| 2026-05-08 17:22 | 48.04647 | -122.44800 | 4062 ft | 117 kts | 315° |
| 2026-05-08 17:22 | 48.05227 | -122.45651 | 4063 ft | 116 kts | 312° |
| 2026-05-08 17:22 | 48.05790 | -122.46536 | 4044 ft | 117 kts | 311° |
| 2026-05-08 17:22 | 48.06345 | -122.47419 | 4042 ft | 117 kts | 313° |
| 2026-05-08 17:23 | 48.06934 | -122.48257 | 4025 ft | 118 kts | 317° |
| 2026-05-08 17:23 | 48.07548 | -122.49063 | 4045 ft | 116 kts | 318° |
| 2026-05-08 17:23 | 48.08173 | -122.49850 | 4017 ft | 118 kts | 320° |
| 2026-05-08 17:23 | 48.08780 | -122.50635 | 4047 ft | 115 kts | 319° |
| 2026-05-08 17:24 | 48.09394 | -122.51450 | 4015 ft | 117 kts | 319° |
| 2026-05-08 17:24 | 48.10009 | -122.52201 | 4026 ft | 116 kts | 322° |
| 2026-05-08 17:24 | 48.10628 | -122.52986 | 4006 ft | 116 kts | 316° |
| 2026-05-08 17:24 | 48.11199 | -122.53838 | 4019 ft | 115 kts | 311° |
| 2026-05-08 17:25 | 48.11778 | -122.54672 | 3995 ft | 117 kts | 319° |
| 2026-05-08 17:25 | 48.12372 | -122.55493 | 3993 ft | 116 kts | 316° |
| 2026-05-08 17:25 | 48.12994 | -122.56287 | 3954 ft | 119 kts | 322° |
| 2026-05-08 17:25 | 48.13624 | -122.57037 | 3988 ft | 114 kts | 319° |
| 2026-05-08 17:26 | 48.14225 | -122.57850 | 3985 ft | 116 kts | 315° |
| 2026-05-08 17:26 | 48.14804 | -122.58672 | 3984 ft | 116 kts | 315° |
| 2026-05-08 17:26 | 48.15367 | -122.59536 | 3985 ft | 116 kts | 314° |
| 2026-05-08 17:26 | 48.15908 | -122.60425 | 4000 ft | 114 kts | 311° |
| 2026-05-08 17:27 | 48.16441 | -122.61314 | 3993 ft | 116 kts | 311° |
| 2026-05-08 17:27 | 48.16969 | -122.62190 | 4009 ft | 114 kts | 315° |
| 2026-05-08 17:27 | 48.17555 | -122.63009 | 3993 ft | 115 kts | 320° |
| 2026-05-08 17:27 | 48.18170 | -122.63786 | 3987 ft | 115 kts | 320° |
| 2026-05-08 17:28 | 48.18777 | -122.64563 | 3995 ft | 114 kts | 319° |
| 2026-05-08 17:28 | 48.19362 | -122.65374 | 3982 ft | 115 kts | 316° |
| 2026-05-08 17:28 | 48.19949 | -122.66221 | 3969 ft | 116 kts | 313° |
| 2026-05-08 17:28 | 48.20511 | -122.67062 | 3992 ft | 114 kts | 316° |
| 2026-05-08 17:29 | 48.21147 | -122.67803 | 3955 ft | 118 kts | 324° |
| 2026-05-08 17:29 | 48.21825 | -122.68449 | 3996 ft | 114 kts | 327° |
| 2026-05-08 17:29 | 48.22446 | -122.69196 | 3989 ft | 114 kts | 314° |
| 2026-05-08 17:29 | 48.23000 | -122.70064 | 3990 ft | 114 kts | 312° |
| 2026-05-08 17:30 | 48.23526 | -122.70941 | 4000 ft | 113 kts | 308° |
| 2026-05-08 17:30 | 48.24016 | -122.71873 | 3994 ft | 114 kts | 304° |
| 2026-05-08 17:30 | 48.24479 | -122.72824 | 4009 ft | 113 kts | 302° |
| 2026-05-08 17:30 | 48.24837 | -122.73891 | 3999 ft | 115 kts | 290° |
| 2026-05-08 17:31 | 48.25124 | -122.75001 | 4007 ft | 114 kts | 291° |
| 2026-05-08 17:31 | 48.25423 | -122.76085 | 4017 ft | 113 kts | 290° |
| 2026-05-08 17:31 | 48.25684 | -122.77214 | 4013 ft | 113 kts | 285° |
| 2026-05-08 17:31 | 48.25939 | -122.78330 | 4024 ft | 113 kts | 289° |
| 2026-05-08 17:32 | 48.26226 | -122.79442 | 4000 ft | 116 kts | 289° |
| 2026-05-08 17:32 | 48.26508 | -122.80553 | 4023 ft | 114 kts | 289° |
| 2026-05-08 17:32 | 48.26761 | -122.81678 | 4028 ft | 114 kts | 284° |
| 2026-05-08 17:32 | 48.26967 | -122.82830 | 4020 ft | 114 kts | 281° |
| 2026-05-08 17:33 | 48.27174 | -122.83984 | 4019 ft | 115 kts | 284° |
| 2026-05-08 17:33 | 48.27437 | -122.85120 | 4029 ft | 114 kts | 288° |
| 2026-05-08 17:33 | 48.27731 | -122.86231 | 4028 ft | 114 kts | 291° |
| 2026-05-08 17:33 | 48.28030 | -122.87324 | 4036 ft | 114 kts | 291° |
| 2026-05-08 17:34 | 48.28317 | -122.88425 | 4050 ft | 113 kts | 291° |
| 2026-05-08 17:34 | 48.28601 | -122.89533 | 4047 ft | 113 kts | 290° |
| 2026-05-08 17:34 | 48.28866 | -122.90652 | 4049 ft | 114 kts | 288° |
| 2026-05-08 17:34 | 48.29104 | -122.91783 | 4063 ft | 112 kts | 286° |
| 2026-05-08 17:35 | 48.29322 | -122.92915 | 4057 ft | 113 kts | 286° |
| 2026-05-08 17:35 | 48.29570 | -122.94044 | 4046 ft | 115 kts | 289° |
| 2026-05-08 17:35 | 48.29856 | -122.95147 | 4059 ft | 113 kts | 291° |
| 2026-05-08 17:35 | 48.30151 | -122.96270 | 4035 ft | 115 kts | 290° |
| 2026-05-08 17:36 | 48.30442 | -122.97362 | 4046 ft | 114 kts | 289° |
| 2026-05-08 17:36 | 48.30729 | -122.98489 | 4037 ft | 114 kts | 290° |
| 2026-05-08 17:36 | 48.31027 | -122.99580 | 4021 ft | 115 kts | 292° |
| 2026-05-08 17:36 | 48.31517 | -123.00529 | 4012 ft | 114 kts | 329° |
| 2026-05-08 17:37 | 48.32275 | -123.00721 | 3991 ft | 112 kts | 4° |
| 2026-05-08 17:37 | 48.33044 | -123.00772 | 4003 ft | 109 kts | 355° |
| 2026-05-08 17:37 | 48.33769 | -123.00880 | 4011 ft | 99 kts | 357° |
| 2026-05-08 17:37 | 48.34424 | -123.00952 | 3979 ft | 92 kts | 357° |
| 2026-05-08 17:38 | 48.35080 | -123.01041 | 3836 ft | 94 kts | 358° |
| 2026-05-08 17:38 | 48.35717 | -123.01099 | 3706 ft | 92 kts | 0° |
| 2026-05-08 17:38 | 48.36363 | -123.01132 | 3545 ft | 92 kts | 2° |
| 2026-05-08 17:38 | 48.36998 | -123.01102 | 3397 ft | 92 kts | 4° |
| 2026-05-08 17:39 | 48.37635 | -123.01165 | 3232 ft | 93 kts | 359° |
| 2026-05-08 17:39 | 48.38286 | -123.01257 | 3071 ft | 94 kts | 357° |
| 2026-05-08 17:39 | 48.38938 | -123.01389 | 2911 ft | 94 kts | 355° |
| 2026-05-08 17:39 | 48.39574 | -123.01520 | 2760 ft | 92 kts | 359° |
| 2026-05-08 17:40 | 48.40201 | -123.01592 | 2616 ft | 90 kts | 359° |
| 2026-05-08 17:40 | 48.40828 | -123.01652 | 2456 ft | 89 kts | 1° |
| 2026-05-08 17:40 | 48.41443 | -123.01664 | 2287 ft | 90 kts | 6° |
| 2026-05-08 17:40 | 48.42067 | -123.01660 | 2143 ft | 88 kts | 2° |
| 2026-05-08 17:41 | 48.42697 | -123.01725 | 1982 ft | 93 kts | 357° |
| 2026-05-08 17:41 | 48.43346 | -123.01819 | 1961 ft | 94 kts | 358° |
| 2026-05-08 17:41 | 48.43985 | -123.01905 | 1971 ft | 92 kts | 1° |
| 2026-05-08 17:41 | 48.44637 | -123.01945 | 1970 ft | 93 kts | 359° |
| 2026-05-08 17:42 | 48.45262 | -123.02214 | 1983 ft | 94 kts | 336° |
| 2026-05-08 17:42 | 48.45841 | -123.02660 | 1983 ft | 96 kts | 336° |
| 2026-05-08 17:42 | 48.46444 | -123.03108 | 1993 ft | 95 kts | 336° |
| 2026-05-08 17:42 | 48.47038 | -123.03572 | 1974 ft | 99 kts | 334° |
| 2026-05-08 17:43 | 48.47638 | -123.04082 | 1984 ft | 98 kts | 332° |
| 2026-05-08 17:43 | 48.48240 | -123.04614 | 1963 ft | 100 kts | 331° |
| 2026-05-08 17:43 | 48.48815 | -123.05139 | 1969 ft | 98 kts | 331° |
| 2026-05-08 17:43 | 48.49396 | -123.05715 | 1929 ft | 100 kts | 324° |
| 2026-05-08 17:44 | 48.49917 | -123.06374 | 1926 ft | 97 kts | 324° |
| 2026-05-08 17:44 | 48.50522 | -123.06724 | 1793 ft | 94 kts | 4° |
| 2026-05-08 17:44 | 48.51082 | -123.06323 | 1638 ft | 91 kts | 54° |
| 2026-05-08 17:44 | 48.51430 | -123.05573 | 1529 ft | 86 kts | 60° |
| 2026-05-08 17:45 | 48.51747 | -123.04798 | 1356 ft | 88 kts | 62° |
| 2026-05-08 17:45 | 48.52210 | -123.04188 | 1188 ft | 92 kts | 28° |
| 2026-05-08 17:45 | 48.52845 | -123.04005 | 1038 ft | 94 kts | 0° |
| 2026-05-08 17:45 | 48.53480 | -123.03995 | 888 ft | 90 kts | 2° |
| 2026-05-08 17:46 | 48.54085 | -123.03838 | 754 ft | 89 kts | 29° |
| 2026-05-08 17:46 | 48.54407 | -123.03110 | 612 ft | 85 kts | 94° |
| 2026-05-08 17:46 | 48.54128 | -123.02428 | 480 ft | 76 kts | 163° |
| 2026-05-08 17:46 | 48.53624 | -123.02504 | 425 ft | 70 kts | 191° |
| 2026-05-08 17:47 | 48.53166 | -123.02512 | 304 ft | 63 kts | 179° |
| 2026-05-08 17:47 | 48.52737 | -123.02480 | 184 ft | 61 kts | 178° |
| 2026-05-08 17:47 | 48.52369 | -123.02452 | 105 ft | 41 kts | 185° |
| 2026-05-08 17:47 | 48.52203 | -123.02441 | 101 ft | 30 kts | 179° |
| 2026-05-08 17:48 | 48.52056 | -123.02432 | 96 ft | 2 kts | 195° |
| 2026-05-08 17:48 | 48.52042 | -123.02451 | 97 ft | 4 kts | 249° |
| 2026-05-08 17:48 | 48.52042 | -123.02484 | 99 ft | 5 kts | 298° |
| 2026-05-08 17:48 | 48.52063 | -123.02494 | 100 ft | 4 kts | 358° |
| 2026-05-08 17:49 | 48.52117 | -123.02497 | 101 ft | 8 kts | 354° |
| 2026-05-08 17:49 | 48.52171 | -123.02502 | 103 ft | 6 kts | 356° |
| 2026-05-08 17:49 | 48.52213 | -123.02506 | 104 ft | 5 kts | 357° |
| 2026-05-08 17:49 | 48.52255 | -123.02509 | 105 ft | 8 kts | 356° |
| 2026-05-08 17:50 | 48.52320 | -123.02514 | 106 ft | 10 kts | 356° |
| 2026-05-08 17:50 | 48.52390 | -123.02519 | 109 ft | 8 kts | 357° |
| 2026-05-08 17:50 | 48.52435 | -123.02523 | 111 ft | 5 kts | 359° |
| 2026-05-08 17:50 | 48.52464 | -123.02525 | 112 ft | 3 kts | 355° |
| 2026-05-08 17:51 | 48.52508 | -123.02529 | 114 ft | 8 kts | 356° |
| 2026-05-08 17:51 | 48.52573 | -123.02533 | 117 ft | 7 kts | 357° |
| 2026-05-08 17:51 | 48.52614 | -123.02537 | 119 ft | 5 kts | 356° |
| 2026-05-08 17:51 | 48.52652 | -123.02532 | 120 ft | 3 kts | 42° |
| 2026-05-08 17:52 | 48.52657 | -123.02478 | 117 ft | 7 kts | 87° |
| 2026-05-08 17:52 | 48.52659 | -123.02392 | 112 ft | 6 kts | 91° |
| 2026-05-08 17:52 | 48.52615 | -123.02356 | 109 ft | 0 kts | 290° |
| 2026-05-08 17:53 | 48.52615 | -123.02357 | 109 ft | 0 kts | 268° |